createdAt,value
2023-01-08T00:01:04.919Z,15.53
2023-01-08T00:04:08.800Z,15.30
2023-01-08T00:07:14.065Z,16.40
2023-01-08T00:10:18.025Z,15.10
2023-01-08T00:13:21.815Z,15.63
2023-01-08T00:16:25.716Z,16.87
2023-01-08T00:19:29.888Z,14.60
2023-01-08T00:22:34.945Z,14.33
2023-01-08T00:25:38.571Z,12.40
2023-01-08T00:28:43.186Z,12.50
2023-01-08T00:31:46.964Z,11.90
2023-01-08T00:34:50.748Z,11.83
2023-01-08T00:37:55.944Z,12.07
2023-01-08T00:40:59.758Z,11.80
2023-01-08T00:44:03.623Z,11.90
2023-01-08T00:47:07.612Z,12.67
2023-01-08T00:50:12.049Z,12.83
2023-01-08T00:53:17.315Z,13.50
2023-01-08T00:56:21.211Z,13.20
2023-01-08T00:59:25.053Z,11.83
2023-01-08T01:02:29.253Z,11.93
2023-01-08T01:05:33.585Z,11.07
2023-01-08T01:08:39.063Z,12.00
2023-01-08T01:11:42.779Z,10.13
2023-01-08T01:14:46.525Z,10.80
2023-01-08T01:17:50.228Z,11.23
2023-01-08T01:20:53.884Z,10.60
2023-01-08T01:24:01.255Z,10.77
2023-01-08T01:27:04.920Z,10.27
2023-01-08T01:30:10.009Z,11.13
2023-01-08T01:33:13.666Z,11.27
2023-01-08T01:36:18.845Z,11.27
2023-01-08T01:39:27.885Z,10.67
2023-01-08T01:42:44.497Z,11.33
2023-01-08T01:45:48.208Z,11.60
2023-01-08T01:48:54.992Z,13.40
2023-01-08T01:52:02.685Z,12.53
2023-01-08T01:55:11.703Z,13.13
2023-01-08T01:58:18.973Z,13.30
2023-01-08T02:01:23.729Z,14.10
2023-01-08T02:04:27.404Z,12.57
2023-01-08T02:07:41.209Z,12.73
2023-01-08T02:10:52.859Z,13.83
2023-01-08T02:14:06.075Z,13.17
2023-01-08T02:17:14.879Z,11.53
2023-01-08T02:20:22.615Z,10.87
2023-01-08T02:23:35.550Z,12.07
2023-01-08T02:26:40.561Z,12.57
2023-01-08T02:29:44.436Z,12.17
2023-01-08T02:32:48.092Z,13.13
2023-01-08T02:35:56.314Z,13.07
2023-01-08T02:39:10.313Z,13.73
2023-01-08T02:42:21.714Z,13.37
2023-01-08T02:45:37.127Z,12.67
2023-01-08T02:48:46.795Z,12.90
2023-01-08T02:51:53.115Z,12.27
2023-01-08T02:54:58.603Z,11.83
2023-01-08T02:58:05.139Z,11.47
2023-01-08T03:01:11.517Z,11.07
2023-01-08T03:04:19.114Z,11.60
2023-01-08T03:07:23.199Z,12.07
2023-01-08T03:10:30.772Z,11.17
2023-01-08T03:13:40.014Z,11.47
2023-01-08T03:16:48.994Z,11.43
2023-01-08T03:19:57.604Z,11.00
2023-01-08T03:23:04.590Z,10.13
2023-01-08T03:26:09.149Z,9.67
2023-01-08T03:29:18.539Z,9.37
2023-01-08T03:32:24.532Z,9.03
2023-01-08T03:35:29.376Z,9.77
2023-01-08T03:38:37.890Z,9.43
2023-01-08T03:41:41.612Z,9.27
2023-01-08T03:44:46.867Z,8.40
2023-01-08T03:47:51.885Z,8.83
2023-01-08T03:50:55.623Z,9.27
2023-01-08T03:54:01.265Z,9.60
2023-01-08T03:57:05.063Z,9.67
2023-01-08T04:00:11.978Z,9.63
2023-01-08T04:03:15.575Z,10.17
2023-01-08T04:06:19.137Z,9.90
2023-01-08T04:09:22.744Z,9.33
2023-01-08T04:12:26.353Z,10.13
2023-01-08T04:15:31.502Z,9.27
2023-01-08T04:18:35.720Z,8.83
2023-01-08T04:21:39.876Z,9.80
2023-01-08T04:24:43.627Z,10.17
2023-01-08T04:27:47.133Z,10.60
2023-01-08T04:30:52.238Z,14.60
2023-01-08T04:33:55.806Z,18.83
2023-01-08T04:36:59.508Z,22.23
2023-01-08T04:40:03.199Z,21.80
2023-01-08T04:43:06.825Z,22.80
2023-01-08T04:46:12.076Z,32.33
2023-01-08T04:49:16.076Z,35.30
2023-01-08T04:52:19.738Z,29.93
2023-01-08T04:55:23.330Z,32.30
2023-01-08T04:58:26.935Z,45.83
2023-01-08T05:01:32.144Z,69.73
2023-01-08T05:04:35.823Z,87.20
2023-01-08T05:07:39.469Z,88.93
2023-01-08T05:10:43.081Z,82.33
2023-01-08T05:13:50.229Z,72.87
2023-01-08T05:16:55.308Z,41.27
2023-01-08T05:19:58.864Z,45.93
2023-01-08T05:23:03.016Z,41.50
2023-01-08T05:26:08.387Z,37.70
2023-01-08T05:29:12.135Z,29.40
2023-01-08T05:32:19.124Z,31.73
2023-01-08T05:35:22.786Z,30.50
2023-01-08T05:38:26.462Z,26.53
2023-01-08T05:41:30.015Z,25.57
2023-01-08T05:44:33.720Z,22.20
2023-01-08T05:47:38.703Z,23.07
2023-01-08T05:50:42.541Z,22.93
2023-01-08T05:53:48.236Z,27.43
2023-01-08T05:56:51.835Z,35.67
2023-01-08T05:59:55.453Z,43.57
2023-01-08T06:03:00.642Z,41.03
2023-01-08T06:06:06.591Z,25.37
2023-01-08T06:09:10.525Z,23.10
2023-01-08T06:12:14.179Z,18.97
2023-01-08T06:15:17.931Z,17.87
2023-01-08T06:18:23.027Z,15.63
2023-01-08T06:21:26.681Z,12.73
2023-01-08T06:24:30.319Z,12.20
2023-01-08T06:27:33.867Z,11.53
2023-01-08T06:30:37.475Z,11.07
2023-01-08T06:33:42.560Z,9.53
2023-01-08T06:36:46.163Z,9.60
2023-01-08T06:39:49.771Z,8.97
2023-01-08T06:42:53.745Z,8.33
2023-01-08T06:45:58.688Z,9.70
2023-01-08T06:49:03.969Z,9.30
2023-01-08T06:52:07.844Z,8.00
2023-01-08T06:55:11.993Z,8.77
2023-01-08T06:58:15.713Z,8.33
2023-01-08T07:01:19.962Z,8.47
2023-01-08T07:04:25.559Z,7.87
2023-01-08T07:07:29.445Z,8.80
2023-01-08T07:10:33.296Z,7.80
2023-01-08T07:13:37.109Z,8.63
2023-01-08T07:16:40.953Z,9.97
2023-01-08T07:19:46.073Z,10.20
2023-01-08T07:22:49.804Z,12.40
2023-01-08T07:25:53.599Z,11.13
2023-01-08T07:28:57.373Z,10.13
2023-01-08T07:32:01.078Z,9.40
2023-01-08T07:35:06.927Z,9.40
2023-01-08T07:38:10.739Z,9.63
2023-01-08T07:41:14.634Z,8.23
2023-01-08T07:44:18.552Z,8.20
2023-01-08T07:47:22.470Z,32.70
2023-01-08T07:50:28.731Z,40.80
2023-01-08T07:53:32.696Z,11.97
2023-01-08T07:56:36.530Z,8.40
2023-01-08T07:59:40.374Z,16.80
2023-01-08T08:02:44.425Z,8.97
2023-01-08T08:05:49.724Z,9.77
2023-01-08T08:08:53.514Z,21.57
2023-01-08T08:11:57.498Z,73.17
2023-01-08T08:15:01.282Z,72.47
2023-01-08T08:18:05.714Z,18.83
2023-01-08T08:21:11.046Z,10.67
2023-01-08T08:24:14.781Z,10.40
2023-01-08T08:27:18.592Z,9.03
2023-01-08T08:30:22.384Z,56.10
2023-01-08T08:33:26.145Z,9.83
2023-01-08T08:36:32.498Z,7.93
2023-01-08T08:39:36.448Z,11.90
2023-01-08T08:42:40.234Z,9.80
2023-01-08T08:45:44.312Z,8.33
2023-01-08T08:48:48.378Z,8.47
2023-01-08T08:51:53.707Z,8.03
2023-01-08T08:54:57.507Z,8.03
2023-01-08T08:58:06.273Z,19.57
2023-01-08T09:01:10.068Z,9.27
2023-01-08T09:04:13.991Z,17.77
2023-01-08T09:07:19.354Z,11.47
2023-01-08T09:10:23.375Z,9.43
2023-01-08T09:13:27.104Z,9.80
2023-01-08T09:16:30.980Z,12.13
2023-01-08T09:19:34.825Z,12.17
2023-01-08T09:22:40.153Z,9.47
2023-01-08T09:25:44.000Z,9.03
2023-01-08T09:28:47.868Z,8.97
2023-01-08T09:31:51.891Z,8.27
2023-01-08T09:34:55.763Z,7.97
2023-01-08T09:38:01.194Z,7.20
2023-01-08T09:41:08.312Z,6.70
2023-01-08T09:44:17.287Z,7.50
2023-01-08T09:47:26.833Z,8.60
2023-01-08T09:50:33.333Z,10.80
2023-01-08T09:53:38.725Z,9.63
2023-01-08T09:56:43.243Z,173.87
2023-01-08T09:59:49.034Z,36.10
2023-01-08T10:02:54.656Z,6.97
2023-01-08T10:05:58.635Z,8.87
2023-01-08T10:09:05.417Z,5.63
2023-01-08T10:12:14.433Z,6.20
2023-01-08T10:15:20.747Z,5.47
2023-01-08T10:18:27.364Z,5.97
2023-01-08T10:21:33.395Z,6.00
2023-01-08T10:24:40.894Z,5.90
2023-01-08T10:27:50.346Z,7.17
2023-01-08T10:30:56.132Z,5.40
2023-01-08T10:34:10.961Z,6.03
2023-01-08T10:37:24.694Z,54.97
2023-01-08T10:40:38.583Z,13.03
2023-01-08T10:43:52.354Z,5.20
2023-01-08T10:47:00.404Z,5.80
2023-01-08T10:50:07.033Z,52.77
2023-01-08T10:53:26.071Z,10.83
2023-01-08T10:56:41.843Z,5.97
2023-01-08T10:59:45.658Z,7.07
2023-01-08T11:02:50.853Z,7.37
2023-01-08T11:05:54.674Z,6.67
2023-01-08T11:09:01.464Z,10.47
2023-01-08T11:12:22.713Z,5.40
2023-01-08T11:15:32.751Z,6.10
2023-01-08T11:18:45.393Z,5.77
2023-01-08T11:21:57.953Z,6.23
2023-01-08T11:25:01.746Z,7.10
2023-01-08T11:28:08.701Z,6.10
2023-01-08T11:31:16.704Z,5.90
2023-01-08T11:34:26.519Z,6.20
2023-01-08T11:37:34.913Z,7.00
2023-01-08T11:40:47.754Z,6.50
2023-01-08T11:44:06.777Z,6.23
2023-01-08T11:47:18.464Z,6.77
2023-01-08T11:50:29.177Z,7.80
2023-01-08T11:53:40.018Z,9.17
2023-01-08T11:57:05.457Z,6.67
2023-01-08T12:00:39.675Z,6.70
2023-01-08T12:03:48.680Z,26.47
2023-01-08T12:07:01.491Z,8.30
2023-01-08T12:10:15.419Z,16.93
2023-01-08T12:13:36.152Z,9.23
2023-01-08T12:16:56.087Z,8.70
2023-01-08T12:20:13.847Z,72.67
2023-01-08T12:23:32.356Z,16.97
2023-01-08T12:26:46.834Z,29.20
2023-01-08T12:30:05.323Z,15.17
2023-01-08T12:33:14.967Z,9.90
2023-01-08T12:36:28.597Z,10.40
2023-01-08T12:39:40.424Z,12.00
2023-01-08T12:42:47.392Z,9.40
2023-01-08T12:45:58.525Z,8.33
2023-01-08T12:49:06.316Z,7.53
2023-01-08T12:52:18.123Z,7.50
2023-01-08T12:55:33.454Z,7.23
2023-01-08T12:58:50.216Z,7.73
2023-01-08T13:02:02.819Z,10.80
2023-01-08T13:05:15.652Z,8.10
2023-01-08T13:08:34.467Z,7.80
2023-01-08T13:11:42.495Z,7.37
2023-01-08T13:14:51.784Z,8.50
2023-01-08T13:17:57.755Z,8.97
2023-01-08T13:21:04.585Z,8.17
2023-01-08T13:24:27.026Z,8.13
2023-01-08T13:27:31.505Z,8.93
2023-01-08T13:30:39.064Z,8.50
2023-01-08T13:33:43.582Z,8.80
2023-01-08T13:36:58.767Z,10.10
2023-01-08T13:40:04.274Z,9.33
2023-01-08T13:43:14.806Z,10.20
2023-01-08T13:46:20.727Z,8.33
2023-01-08T13:49:30.296Z,8.33
2023-01-08T13:52:43.193Z,8.37
2023-01-08T13:55:57.286Z,8.77
2023-01-08T13:59:01.232Z,9.23
2023-01-08T14:02:05.969Z,8.07
2023-01-08T14:05:20.993Z,8.67
2023-01-08T14:08:27.645Z,7.80
2023-01-08T14:11:34.106Z,8.03
2023-01-08T14:14:40.736Z,8.40
2023-01-08T14:17:46.106Z,10.50
2023-01-08T14:20:52.633Z,7.83
2023-01-08T14:23:58.115Z,9.17
2023-01-08T14:27:02.264Z,8.50
2023-01-08T14:30:17.560Z,10.30
2023-01-08T14:33:26.104Z,10.23
2023-01-08T14:36:29.935Z,15.50
2023-01-08T14:39:38.606Z,8.87
2023-01-08T14:42:47.463Z,9.20
2023-01-08T14:45:54.134Z,7.87
2023-01-08T14:48:58.774Z,8.10
2023-01-08T14:52:04.174Z,8.13
2023-01-08T14:55:18.867Z,8.50
2023-01-08T14:58:25.746Z,9.10
2023-01-08T15:01:31.758Z,9.40
2023-01-08T15:04:35.764Z,8.83
2023-01-08T15:07:39.636Z,9.47
2023-01-08T15:10:44.882Z,11.50
2023-01-08T15:13:50.535Z,11.17
2023-01-08T15:16:56.343Z,10.80
2023-01-08T15:20:02.210Z,12.20
2023-01-08T15:23:06.137Z,13.60
2023-01-08T15:26:16.109Z,24.73
2023-01-08T15:29:21.664Z,24.13
2023-01-08T15:32:28.962Z,18.10
2023-01-08T15:35:32.744Z,21.73
2023-01-08T15:38:36.523Z,26.40
2023-01-08T15:41:59.837Z,24.33
2023-01-08T15:45:03.809Z,20.93
2023-01-08T15:48:08.647Z,27.67
2023-01-08T15:51:12.514Z,41.37
2023-01-08T15:54:16.915Z,47.03
2023-01-08T15:57:22.404Z,21.50
2023-01-08T16:00:26.314Z,24.80
2023-01-08T16:03:30.943Z,21.73
2023-01-08T16:06:36.352Z,26.43
2023-01-08T16:09:40.173Z,83.50
2023-01-08T16:12:45.900Z,28.60
2023-01-08T16:15:49.701Z,35.40
2023-01-08T16:18:53.897Z,107.60
2023-01-08T16:21:57.727Z,141.13
2023-01-08T16:25:01.475Z,208.40
2023-01-08T16:28:07.094Z,130.07
2023-01-08T16:31:11.477Z,122.33
2023-01-08T16:34:15.793Z,147.70
2023-01-08T16:37:19.625Z,83.07
2023-01-08T16:40:23.425Z,64.30
2023-01-08T16:43:30.175Z,56.80
2023-01-08T16:46:34.092Z,77.90
2023-01-08T16:49:38.407Z,60.23
2023-01-08T16:52:43.272Z,33.63
2023-01-08T16:55:46.937Z,26.30
2023-01-08T16:58:53.595Z,34.40
2023-01-08T17:01:57.427Z,55.90
2023-01-08T17:05:01.331Z,35.03
2023-01-08T17:08:05.435Z,32.37
2023-01-08T17:11:11.539Z,30.50
2023-01-08T17:14:17.065Z,73.03
2023-01-08T17:17:20.869Z,47.27
2023-01-08T17:20:24.754Z,35.20
2023-01-08T17:23:29.127Z,32.10
2023-01-08T17:26:32.992Z,31.97
2023-01-08T17:29:38.327Z,38.07
2023-01-08T17:32:42.374Z,43.53
2023-01-08T17:35:46.393Z,36.60
2023-01-08T17:38:50.939Z,46.13
2023-01-08T17:42:11.795Z,38.90
2023-01-08T17:45:17.564Z,41.23
2023-01-08T17:48:21.275Z,44.07
2023-01-08T17:51:24.953Z,43.60
2023-01-08T17:54:29.038Z,38.43
2023-01-08T17:57:32.973Z,36.80
2023-01-08T18:00:38.369Z,39.20
2023-01-08T18:03:42.156Z,38.10
2023-01-08T18:06:46.355Z,35.73
2023-01-08T18:09:52.990Z,65.53
2023-01-08T18:12:56.724Z,56.67
2023-01-08T18:16:04.982Z,53.20
2023-01-08T18:19:08.763Z,40.73
2023-01-08T18:22:12.535Z,34.73
2023-01-08T18:25:16.343Z,36.50
2023-01-08T18:28:20.603Z,41.53
2023-01-08T18:31:26.143Z,41.70
2023-01-08T18:34:29.943Z,39.20
2023-01-08T18:37:34.625Z,36.77
2023-01-08T18:40:38.333Z,35.27
2023-01-08T18:43:42.184Z,34.27
2023-01-08T18:46:48.281Z,31.97
2023-01-08T18:49:53.433Z,33.63
2023-01-08T18:52:57.315Z,40.43
2023-01-08T18:56:01.694Z,38.57
2023-01-08T18:59:06.729Z,36.43
2023-01-08T19:02:19.473Z,35.70
2023-01-08T19:05:23.729Z,35.03
2023-01-08T19:08:27.584Z,33.20
2023-01-08T19:11:31.363Z,30.10
2023-01-08T19:14:35.196Z,29.23
2023-01-08T19:17:40.905Z,30.20
2023-01-08T19:20:46.454Z,32.60
2023-01-08T19:23:50.628Z,36.90
2023-01-08T19:26:54.490Z,39.30
2023-01-08T19:29:58.176Z,46.40
2023-01-08T19:33:03.480Z,48.03
2023-01-08T19:36:12.935Z,49.17
2023-01-08T19:39:16.775Z,47.30
2023-01-08T19:42:38.124Z,46.40
2023-01-08T19:45:41.914Z,43.67
2023-01-08T19:48:47.403Z,40.03
2023-01-08T19:51:51.192Z,39.87
2023-01-08T19:54:55.451Z,43.73
2023-01-08T19:57:59.973Z,64.03
2023-01-08T20:01:10.353Z,48.03
2023-01-08T20:04:15.993Z,44.47
2023-01-08T20:07:19.794Z,40.73
2023-01-08T20:10:23.603Z,42.77
2023-01-08T20:13:27.496Z,38.33
2023-01-08T20:16:31.611Z,35.43
2023-01-08T20:19:37.645Z,33.13
2023-01-08T20:22:41.556Z,32.67
2023-01-08T20:25:45.792Z,32.23
2023-01-08T20:28:50.752Z,34.13
2023-01-08T20:31:59.606Z,32.30
2023-01-08T20:35:05.007Z,33.00
2023-01-08T20:38:09.244Z,33.07
2023-01-08T20:41:13.662Z,35.53
2023-01-08T20:44:17.683Z,67.73
2023-01-08T20:47:21.583Z,43.67
2023-01-08T20:50:26.992Z,67.53
2023-01-08T20:53:31.093Z,39.00
2023-01-08T20:56:35.382Z,36.67
2023-01-08T20:59:39.202Z,44.97
2023-01-08T21:02:43.961Z,39.20
2023-01-08T21:05:49.471Z,34.23
2023-01-08T21:08:54.770Z,38.50
2023-01-08T21:11:58.615Z,34.57
2023-01-08T21:15:02.451Z,34.87
2023-01-08T21:18:06.558Z,44.07
2023-01-08T21:21:13.603Z,37.67
2023-01-08T21:24:17.391Z,41.70
2023-01-08T21:27:21.274Z,32.80
2023-01-08T21:30:25.193Z,36.33
2023-01-08T21:33:29.014Z,33.73
2023-01-08T21:36:34.552Z,32.23
2023-01-08T21:39:38.475Z,31.63
2023-01-08T21:42:59.501Z,29.27
2023-01-08T21:46:04.076Z,29.40
2023-01-08T21:49:07.935Z,27.00
2023-01-08T21:52:30.764Z,27.07
2023-01-08T21:55:35.276Z,25.23
2023-01-08T21:58:39.034Z,23.13
2023-01-08T22:01:42.875Z,24.17
2023-01-08T22:04:47.413Z,23.33
2023-01-08T22:07:52.743Z,20.93
2023-01-08T22:10:56.653Z,21.23
2023-01-08T22:14:00.365Z,21.10
2023-01-08T22:17:08.652Z,18.90
2023-01-08T22:20:13.685Z,17.17
2023-01-08T22:23:19.043Z,17.53
2023-01-08T22:26:22.804Z,17.10
2023-01-08T22:29:26.733Z,16.13
2023-01-08T22:32:30.625Z,18.03
2023-01-08T22:35:34.562Z,19.00
2023-01-08T22:38:40.105Z,19.23
2023-01-08T22:41:44.732Z,21.00
2023-01-08T22:44:50.584Z,23.03
2023-01-08T22:47:54.418Z,24.50
2023-01-08T22:51:03.810Z,26.10
2023-01-08T22:54:09.124Z,26.43
2023-01-08T22:57:12.904Z,24.67
2023-01-08T23:00:17.539Z,27.10
2023-01-08T23:03:21.455Z,27.97
2023-01-08T23:06:27.591Z,29.17
2023-01-08T23:09:32.899Z,29.97
2023-01-08T23:12:36.785Z,31.73
2023-01-08T23:15:40.593Z,30.83
2023-01-08T23:18:44.925Z,30.73
2023-01-08T23:21:48.672Z,30.43
2023-01-08T23:24:53.934Z,31.33
2023-01-08T23:27:57.791Z,30.43
2023-01-08T23:31:02.015Z,32.00
2023-01-08T23:34:06.245Z,31.27
2023-01-08T23:37:10.036Z,29.73
2023-01-08T23:40:16.280Z,28.03
2023-01-08T23:43:20.190Z,27.83
2023-01-08T23:46:24.049Z,26.77
2023-01-08T23:49:27.853Z,26.67
2023-01-08T23:52:31.522Z,24.43
2023-01-08T23:55:36.903Z,25.87
2023-01-08T23:58:40.854Z,25.10
